sensor_id;sensor_type;location;lat;lon;timestamp;temperature;humidity
39621;DHT22;25309;48.686;9.170;2022-11-04T00:01:20;10.90;99.90
39621;DHT22;25309;48.686;9.170;2022-11-04T00:03:47;10.90;99.90
39621;DHT22;25309;48.686;9.170;2022-11-04T00:06:15;10.90;99.90
39621;DHT22;25309;48.686;9.170;2022-11-04T00:08:47;10.90;99.90
39621;DHT22;25309;48.686;9.170;2022-11-04T00:11:14;10.90;99.90
39621;DHT22;25309;48.686;9.170;2022-11-04T00:14:00;10.90;99.90
39621;DHT22;25309;48.686;9.170;2022-11-04T00:16:27;10.90;99.90
39621;DHT22;25309;48.686;9.170;2022-11-04T00:19:12;10.90;99.90
39621;DHT22;25309;48.686;9.170;2022-11-04T00:21:39;10.90;99.90
39621;DHT22;25309;48.686;9.170;2022-11-04T00:24:26;10.90;99.90
39621;DHT22;25309;48.686;9.170;2022-11-04T00:27:09;10.90;99.90
39621;DHT22;25309;48.686;9.170;2022-11-04T00:29:55;10.90;99.90
39621;DHT22;25309;48.686;9.170;2022-11-04T00:32:22;10.90;99.90
39621;DHT22;25309;48.686;9.170;2022-11-04T00:35:08;10.90;99.90
39621;DHT22;25309;48.686;9.170;2022-11-04T00:37:36;10.90;99.90
39621;DHT22;25309;48.686;9.170;2022-11-04T00:40:06;10.90;99.90
39621;DHT22;25309;48.686;9.170;2022-11-04T00:42:34;10.90;99.90
39621;DHT22;25309;48.686;9.170;2022-11-04T00:45:00;10.80;99.90
39621;DHT22;25309;48.686;9.170;2022-11-04T00:47:27;10.80;99.90
39621;DHT22;25309;48.686;9.170;2022-11-04T00:49:55;10.80;99.90
39621;DHT22;25309;48.686;9.170;2022-11-04T00:52:22;10.80;99.90
39621;DHT22;25309;48.686;9.170;2022-11-04T00:54:49;10.80;99.90
39621;DHT22;25309;48.686;9.170;2022-11-04T00:57:17;10.80;99.90
39621;DHT22;25309;48.686;9.170;2022-11-04T00:59:44;10.80;99.90
39621;DHT22;25309;48.686;9.170;2022-11-04T01:02:11;10.80;99.90
39621;DHT22;25309;48.686;9.170;2022-11-04T01:04:39;10.70;99.90
39621;DHT22;25309;48.686;9.170;2022-11-04T01:07:06;10.70;99.90
39621;DHT22;25309;48.686;9.170;2022-11-04T01:09:33;10.70;99.90
39621;DHT22;25309;48.686;9.170;2022-11-04T01:12:00;10.70;99.90
39621;DHT22;25309;48.686;9.170;2022-11-04T01:14:28;10.70;99.90
39621;DHT22;25309;48.686;9.170;2022-11-04T01:16:55;10.70;99.90
39621;DHT22;25309;48.686;9.170;2022-11-04T01:19:22;10.80;99.90
39621;DHT22;25309;48.686;9.170;2022-11-04T01:21:50;10.70;99.90
39621;DHT22;25309;48.686;9.170;2022-11-04T01:24:18;10.70;99.90
39621;DHT22;25309;48.686;9.170;2022-11-04T01:26:45;10.70;99.90
39621;DHT22;25309;48.686;9.170;2022-11-04T01:29:12;10.70;99.90
39621;DHT22;25309;48.686;9.170;2022-11-04T01:31:40;10.60;99.90
39621;DHT22;25309;48.686;9.170;2022-11-04T01:34:08;10.60;99.90
39621;DHT22;25309;48.686;9.170;2022-11-04T01:36:35;10.60;99.90
39621;DHT22;25309;48.686;9.170;2022-11-04T01:39:02;10.60;99.90
39621;DHT22;25309;48.686;9.170;2022-11-04T01:41:31;10.60;99.90
39621;DHT22;25309;48.686;9.170;2022-11-04T01:44:00;10.60;99.90
39621;DHT22;25309;48.686;9.170;2022-11-04T01:46:33;10.60;99.90
39621;DHT22;25309;48.686;9.170;2022-11-04T01:49:11;10.60;99.90
39621;DHT22;25309;48.686;9.170;2022-11-04T01:51:42;10.60;99.90
39621;DHT22;25309;48.686;9.170;2022-11-04T01:54:10;10.60;99.90
39621;DHT22;25309;48.686;9.170;2022-11-04T01:56:39;10.60;99.90
39621;DHT22;25309;48.686;9.170;2022-11-04T01:59:11;10.60;99.90
39621;DHT22;25309;48.686;9.170;2022-11-04T02:01:41;10.60;99.90
39621;DHT22;25309;48.686;9.170;2022-11-04T02:04:10;10.60;99.90
39621;DHT22;25309;48.686;9.170;2022-11-04T02:06:54;10.60;99.90
39621;DHT22;25309;48.686;9.170;2022-11-04T02:09:23;10.60;99.90
39621;DHT22;25309;48.686;9.170;2022-11-04T02:11:50;10.70;99.90
39621;DHT22;25309;48.686;9.170;2022-11-04T02:14:36;10.60;99.90
39621;DHT22;25309;48.686;9.170;2022-11-04T02:17:13;10.60;99.90
39621;DHT22;25309;48.686;9.170;2022-11-04T02:20:15;10.60;99.90
39621;DHT22;25309;48.686;9.170;2022-11-04T02:29:15;10.60;99.90
39621;DHT22;25309;48.686;9.170;2022-11-04T02:31:50;10.60;99.90
39621;DHT22;25309;48.686;9.170;2022-11-04T02:34:28;10.50;99.90
39621;DHT22;25309;48.686;9.170;2022-11-04T02:37:06;10.50;99.90
39621;DHT22;25309;48.686;9.170;2022-11-04T02:39:39;10.50;99.90
39621;DHT22;25309;48.686;9.170;2022-11-04T02:42:13;10.50;99.90
39621;DHT22;25309;48.686;9.170;2022-11-04T02:44:45;10.50;99.90
39621;DHT22;25309;48.686;9.170;2022-11-04T02:47:18;10.50;99.90
39621;DHT22;25309;48.686;9.170;2022-11-04T02:49:51;10.50;99.90
39621;DHT22;25309;48.686;9.170;2022-11-04T02:52:25;10.40;99.90
39621;DHT22;25309;48.686;9.170;2022-11-04T02:54:59;10.40;99.90
39621;DHT22;25309;48.686;9.170;2022-11-04T02:57:30;10.40;99.90
39621;DHT22;25309;48.686;9.170;2022-11-04T03:00:02;10.30;99.90
39621;DHT22;25309;48.686;9.170;2022-11-04T03:02:33;10.30;99.90
39621;DHT22;25309;48.686;9.170;2022-11-04T03:05:02;10.30;99.90
39621;DHT22;25309;48.686;9.170;2022-11-04T03:07:35;10.30;99.90
39621;DHT22;25309;48.686;9.170;2022-11-04T03:10:05;10.30;99.90
39621;DHT22;25309;48.686;9.170;2022-11-04T03:12:37;10.30;99.90
39621;DHT22;25309;48.686;9.170;2022-11-04T03:15:10;10.30;99.90
39621;DHT22;25309;48.686;9.170;2022-11-04T03:17:45;10.20;99.90
39621;DHT22;25309;48.686;9.170;2022-11-04T03:20:17;10.20;99.90
39621;DHT22;25309;48.686;9.170;2022-11-04T03:22:44;10.20;99.90
39621;DHT22;25309;48.686;9.170;2022-11-04T03:25:11;10.20;99.90
39621;DHT22;25309;48.686;9.170;2022-11-04T03:27:44;10.10;99.90
39621;DHT22;25309;48.686;9.170;2022-11-04T03:30:17;10.10;99.90
39621;DHT22;25309;48.686;9.170;2022-11-04T03:32:51;10.00;99.90
39621;DHT22;25309;48.686;9.170;2022-11-04T03:35:23;10.00;99.90
39621;DHT22;25309;48.686;9.170;2022-11-04T03:37:51;10.10;99.90
39621;DHT22;25309;48.686;9.170;2022-11-04T03:40:19;10.10;99.90
39621;DHT22;25309;48.686;9.170;2022-11-04T03:42:49;10.10;99.90
39621;DHT22;25309;48.686;9.170;2022-11-04T03:45:20;10.10;99.90
39621;DHT22;25309;48.686;9.170;2022-11-04T03:47:47;10.00;99.90
39621;DHT22;25309;48.686;9.170;2022-11-04T03:50:19;10.00;99.90
39621;DHT22;25309;48.686;9.170;2022-11-04T03:52:49;9.90;99.90
39621;DHT22;25309;48.686;9.170;2022-11-04T03:55:16;9.90;99.90
39621;DHT22;25309;48.686;9.170;2022-11-04T03:57:48;9.90;99.90
39621;DHT22;25309;48.686;9.170;2022-11-04T04:00:20;9.90;99.90
39621;DHT22;25309;48.686;9.170;2022-11-04T04:02:58;9.80;99.90
39621;DHT22;25309;48.686;9.170;2022-11-04T04:05:27;9.80;99.90
39621;DHT22;25309;48.686;9.170;2022-11-04T04:08:02;9.80;99.90
39621;DHT22;25309;48.686;9.170;2022-11-04T04:10:38;9.80;99.90
39621;DHT22;25309;48.686;9.170;2022-11-04T04:13:21;9.80;99.90
39621;DHT22;25309;48.686;9.170;2022-11-04T04:15:53;9.80;99.90
39621;DHT22;25309;48.686;9.170;2022-11-04T04:18:26;9.80;99.90
39621;DHT22;25309;48.686;9.170;2022-11-04T04:20:58;9.70;99.90
39621;DHT22;25309;48.686;9.170;2022-11-04T04:23:29;9.80;99.90
39621;DHT22;25309;48.686;9.170;2022-11-04T04:26:18;9.80;99.90
39621;DHT22;25309;48.686;9.170;2022-11-04T04:29:06;9.80;99.90
39621;DHT22;25309;48.686;9.170;2022-11-04T04:31:36;9.80;99.90
39621;DHT22;25309;48.686;9.170;2022-11-04T04:34:18;9.80;99.90
39621;DHT22;25309;48.686;9.170;2022-11-04T04:36:50;9.80;99.90
39621;DHT22;25309;48.686;9.170;2022-11-04T04:39:20;9.80;99.90
39621;DHT22;25309;48.686;9.170;2022-11-04T04:42:11;9.80;99.90
39621;DHT22;25309;48.686;9.170;2022-11-04T04:44:56;9.80;99.90
39621;DHT22;25309;48.686;9.170;2022-11-04T04:47:37;9.80;99.90
39621;DHT22;25309;48.686;9.170;2022-11-04T04:50:05;9.70;99.90
39621;DHT22;25309;48.686;9.170;2022-11-04T04:52:36;9.80;99.90
39621;DHT22;25309;48.686;9.170;2022-11-04T04:55:05;9.80;99.90
39621;DHT22;25309;48.686;9.170;2022-11-04T04:57:32;9.80;99.90
39621;DHT22;25309;48.686;9.170;2022-11-04T04:59:59;9.80;99.90
39621;DHT22;25309;48.686;9.170;2022-11-04T05:02:26;9.80;99.90
39621;DHT22;25309;48.686;9.170;2022-11-04T05:04:54;9.90;99.90
39621;DHT22;25309;48.686;9.170;2022-11-04T05:07:22;9.80;99.90
39621;DHT22;25309;48.686;9.170;2022-11-04T05:09:49;9.90;99.90
39621;DHT22;25309;48.686;9.170;2022-11-04T05:12:16;9.90;99.90
39621;DHT22;25309;48.686;9.170;2022-11-04T05:14:43;9.90;99.90
39621;DHT22;25309;48.686;9.170;2022-11-04T05:17:10;9.90;99.90
39621;DHT22;25309;48.686;9.170;2022-11-04T05:19:37;9.80;99.90
39621;DHT22;25309;48.686;9.170;2022-11-04T05:22:05;9.80;99.90
39621;DHT22;25309;48.686;9.170;2022-11-04T05:24:32;9.80;99.90
39621;DHT22;25309;48.686;9.170;2022-11-04T05:26:59;9.80;99.90
39621;DHT22;25309;48.686;9.170;2022-11-04T05:29:26;9.70;99.90
39621;DHT22;25309;48.686;9.170;2022-11-04T05:31:52;9.60;99.90
39621;DHT22;25309;48.686;9.170;2022-11-04T05:34:19;9.60;99.90
39621;DHT22;25309;48.686;9.170;2022-11-04T05:36:46;9.60;99.90
39621;DHT22;25309;48.686;9.170;2022-11-04T05:39:15;9.60;99.90
39621;DHT22;25309;48.686;9.170;2022-11-04T05:41:42;9.60;99.90
39621;DHT22;25309;48.686;9.170;2022-11-04T05:44:09;9.60;99.90
39621;DHT22;25309;48.686;9.170;2022-11-04T05:46:36;9.60;99.90
39621;DHT22;25309;48.686;9.170;2022-11-04T05:49:03;9.60;99.90
39621;DHT22;25309;48.686;9.170;2022-11-04T05:51:31;9.60;99.90
39621;DHT22;25309;48.686;9.170;2022-11-04T05:53:59;9.60;99.90
39621;DHT22;25309;48.686;9.170;2022-11-04T05:56:27;9.60;99.90
39621;DHT22;25309;48.686;9.170;2022-11-04T05:58:54;9.60;99.90
39621;DHT22;25309;48.686;9.170;2022-11-04T06:01:29;9.60;99.90
39621;DHT22;25309;48.686;9.170;2022-11-04T06:03:58;9.60;99.90
39621;DHT22;25309;48.686;9.170;2022-11-04T06:06:28;9.60;99.90
39621;DHT22;25309;48.686;9.170;2022-11-04T06:08:56;9.60;99.90
39621;DHT22;25309;48.686;9.170;2022-11-04T06:11:24;9.60;99.90
39621;DHT22;25309;48.686;9.170;2022-11-04T06:13:54;9.60;99.90
39621;DHT22;25309;48.686;9.170;2022-11-04T06:16:22;9.70;99.90
39621;DHT22;25309;48.686;9.170;2022-11-04T06:18:49;9.70;99.90
39621;DHT22;25309;48.686;9.170;2022-11-04T06:21:23;9.60;99.90
39621;DHT22;25309;48.686;9.170;2022-11-04T06:23:51;9.70;99.90
39621;DHT22;25309;48.686;9.170;2022-11-04T06:26:19;9.70;99.90
39621;DHT22;25309;48.686;9.170;2022-11-04T06:28:54;9.60;99.90
39621;DHT22;25309;48.686;9.170;2022-11-04T06:31:21;9.60;99.90
39621;DHT22;25309;48.686;9.170;2022-11-04T06:33:48;9.60;99.90
39621;DHT22;25309;48.686;9.170;2022-11-04T06:36:15;9.60;99.90
39621;DHT22;25309;48.686;9.170;2022-11-04T06:38:42;9.60;99.90
39621;DHT22;25309;48.686;9.170;2022-11-04T06:41:12;9.50;99.90
39621;DHT22;25309;48.686;9.170;2022-11-04T06:43:39;9.50;99.90
39621;DHT22;25309;48.686;9.170;2022-11-04T06:46:23;9.50;99.90
39621;DHT22;25309;48.686;9.170;2022-11-04T06:48:50;9.50;99.90
39621;DHT22;25309;48.686;9.170;2022-11-04T06:51:17;9.50;99.90
39621;DHT22;25309;48.686;9.170;2022-11-04T06:53:44;9.50;99.90
39621;DHT22;25309;48.686;9.170;2022-11-04T06:56:11;9.50;99.90
39621;DHT22;25309;48.686;9.170;2022-11-04T06:58:38;9.50;99.90
39621;DHT22;25309;48.686;9.170;2022-11-04T07:01:06;9.50;99.90
39621;DHT22;25309;48.686;9.170;2022-11-04T07:03:43;9.50;99.90
39621;DHT22;25309;48.686;9.170;2022-11-04T07:06:10;9.50;99.90
39621;DHT22;25309;48.686;9.170;2022-11-04T07:08:37;9.50;99.90
39621;DHT22;25309;48.686;9.170;2022-11-04T07:11:04;9.40;99.90
39621;DHT22;25309;48.686;9.170;2022-11-04T07:13:31;9.40;99.90
39621;DHT22;25309;48.686;9.170;2022-11-04T07:15:58;9.40;99.90
39621;DHT22;25309;48.686;9.170;2022-11-04T07:18:26;9.40;99.90
39621;DHT22;25309;48.686;9.170;2022-11-04T07:20:53;9.40;99.90
39621;DHT22;25309;48.686;9.170;2022-11-04T07:23:20;9.40;99.90
39621;DHT22;25309;48.686;9.170;2022-11-04T07:25:47;9.30;99.90
39621;DHT22;25309;48.686;9.170;2022-11-04T07:28:14;9.40;99.90
39621;DHT22;25309;48.686;9.170;2022-11-04T07:30:41;9.30;99.90
39621;DHT22;25309;48.686;9.170;2022-11-04T07:33:08;9.30;99.90
39621;DHT22;25309;48.686;9.170;2022-11-04T07:35:36;9.30;99.90
39621;DHT22;25309;48.686;9.170;2022-11-04T07:38:04;9.30;99.90
39621;DHT22;25309;48.686;9.170;2022-11-04T07:40:32;9.30;99.90
39621;DHT22;25309;48.686;9.170;2022-11-04T07:43:00;9.30;99.90
39621;DHT22;25309;48.686;9.170;2022-11-04T07:45:35;9.40;99.90
39621;DHT22;25309;48.686;9.170;2022-11-04T07:48:02;9.30;99.90
39621;DHT22;25309;48.686;9.170;2022-11-04T07:50:29;9.40;99.90
39621;DHT22;25309;48.686;9.170;2022-11-04T07:52:58;9.40;99.90
39621;DHT22;25309;48.686;9.170;2022-11-04T07:55:25;9.40;99.90
39621;DHT22;25309;48.686;9.170;2022-11-04T07:57:53;9.40;99.90
39621;DHT22;25309;48.686;9.170;2022-11-04T08:00:20;9.40;99.90
39621;DHT22;25309;48.686;9.170;2022-11-04T08:02:47;9.40;99.90
39621;DHT22;25309;48.686;9.170;2022-11-04T08:05:15;9.50;99.90
39621;DHT22;25309;48.686;9.170;2022-11-04T08:07:41;9.40;99.90
39621;DHT22;25309;48.686;9.170;2022-11-04T08:10:10;9.50;99.90
39621;DHT22;25309;48.686;9.170;2022-11-04T08:12:37;9.50;99.90
39621;DHT22;25309;48.686;9.170;2022-11-04T08:15:05;9.60;99.90
39621;DHT22;25309;48.686;9.170;2022-11-04T08:17:32;9.60;99.90
39621;DHT22;25309;48.686;9.170;2022-11-04T08:19:59;9.70;99.90
39621;DHT22;25309;48.686;9.170;2022-11-04T08:22:26;9.70;99.90
39621;DHT22;25309;48.686;9.170;2022-11-04T08:24:58;9.70;99.90
39621;DHT22;25309;48.686;9.170;2022-11-04T08:27:27;9.70;99.90
39621;DHT22;25309;48.686;9.170;2022-11-04T08:29:54;9.70;99.90
39621;DHT22;25309;48.686;9.170;2022-11-04T08:32:21;9.70;99.90
39621;DHT22;25309;48.686;9.170;2022-11-04T08:34:48;9.80;99.90
39621;DHT22;25309;48.686;9.170;2022-11-04T08:37:15;9.80;99.90
39621;DHT22;25309;48.686;9.170;2022-11-04T08:39:43;9.90;99.90
39621;DHT22;25309;48.686;9.170;2022-11-04T08:42:10;10.00;99.90
39621;DHT22;25309;48.686;9.170;2022-11-04T08:44:38;10.00;99.90
39621;DHT22;25309;48.686;9.170;2022-11-04T08:47:05;10.10;99.90
39621;DHT22;25309;48.686;9.170;2022-11-04T08:49:37;10.20;99.90
39621;DHT22;25309;48.686;9.170;2022-11-04T08:52:04;10.20;99.90
39621;DHT22;25309;48.686;9.170;2022-11-04T08:54:31;10.30;99.90
39621;DHT22;25309;48.686;9.170;2022-11-04T08:56:58;10.30;99.90
39621;DHT22;25309;48.686;9.170;2022-11-04T08:59:25;10.30;99.90
39621;DHT22;25309;48.686;9.170;2022-11-04T09:01:53;10.30;99.90
39621;DHT22;25309;48.686;9.170;2022-11-04T09:04:20;10.30;99.90
39621;DHT22;25309;48.686;9.170;2022-11-04T09:06:47;10.40;99.90
39621;DHT22;25309;48.686;9.170;2022-11-04T09:09:18;10.50;99.90
39621;DHT22;25309;48.686;9.170;2022-11-04T09:11:45;10.50;99.90
39621;DHT22;25309;48.686;9.170;2022-11-04T09:14:12;10.50;99.90
39621;DHT22;25309;48.686;9.170;2022-11-04T09:16:40;10.50;99.90
39621;DHT22;25309;48.686;9.170;2022-11-04T09:19:09;10.50;99.90
39621;DHT22;25309;48.686;9.170;2022-11-04T09:21:36;10.50;99.90
39621;DHT22;25309;48.686;9.170;2022-11-04T09:24:04;10.50;99.90
39621;DHT22;25309;48.686;9.170;2022-11-04T09:26:31;10.60;99.90
39621;DHT22;25309;48.686;9.170;2022-11-04T09:28:59;10.60;99.90
39621;DHT22;25309;48.686;9.170;2022-11-04T09:31:28;10.60;99.90
39621;DHT22;25309;48.686;9.170;2022-11-04T09:33:55;10.60;99.90
39621;DHT22;25309;48.686;9.170;2022-11-04T09:36:24;10.60;99.90
39621;DHT22;25309;48.686;9.170;2022-11-04T09:38:52;10.70;99.90
39621;DHT22;25309;48.686;9.170;2022-11-04T09:42:01;10.70;99.90
39621;DHT22;25309;48.686;9.170;2022-11-04T09:44:40;10.70;99.90
39621;DHT22;25309;48.686;9.170;2022-11-04T09:47:31;10.70;99.90
39621;DHT22;25309;48.686;9.170;2022-11-04T09:49:59;10.80;99.90
39621;DHT22;25309;48.686;9.170;2022-11-04T09:52:31;10.80;99.90
39621;DHT22;25309;48.686;9.170;2022-11-04T09:55:03;10.90;99.90
39621;DHT22;25309;48.686;9.170;2022-11-04T09:57:32;10.90;99.90
39621;DHT22;25309;48.686;9.170;2022-11-04T09:59:59;11.00;99.90
39621;DHT22;25309;48.686;9.170;2022-11-04T10:02:45;11.10;99.90
39621;DHT22;25309;48.686;9.170;2022-11-04T10:05:27;11.20;99.90
39621;DHT22;25309;48.686;9.170;2022-11-04T10:08:08;11.30;99.90
39621;DHT22;25309;48.686;9.170;2022-11-04T10:10:47;11.40;99.90
39621;DHT22;25309;48.686;9.170;2022-11-04T10:13:26;11.60;99.90
39621;DHT22;25309;48.686;9.170;2022-11-04T10:16:14;11.80;99.90
39621;DHT22;25309;48.686;9.170;2022-11-04T10:18:55;12.00;99.90
39621;DHT22;25309;48.686;9.170;2022-11-04T10:21:35;12.10;99.90
39621;DHT22;25309;48.686;9.170;2022-11-04T10:24:17;12.20;99.90
39621;DHT22;25309;48.686;9.170;2022-11-04T10:26:45;12.30;99.90
39621;DHT22;25309;48.686;9.170;2022-11-04T10:29:15;12.40;99.90
39621;DHT22;25309;48.686;9.170;2022-11-04T10:31:43;12.50;99.90
39621;DHT22;25309;48.686;9.170;2022-11-04T10:34:20;12.70;99.90
39621;DHT22;25309;48.686;9.170;2022-11-04T10:36:48;12.80;99.90
39621;DHT22;25309;48.686;9.170;2022-11-04T10:39:22;12.80;99.90
39621;DHT22;25309;48.686;9.170;2022-11-04T10:41:51;12.90;99.90
39621;DHT22;25309;48.686;9.170;2022-11-04T10:44:21;13.10;99.90
39621;DHT22;25309;48.686;9.170;2022-11-04T10:46:54;13.20;99.90
39621;DHT22;25309;48.686;9.170;2022-11-04T10:49:51;13.20;99.90
39621;DHT22;25309;48.686;9.170;2022-11-04T10:52:41;13.30;99.90
39621;DHT22;25309;48.686;9.170;2022-11-04T10:55:19;13.40;99.90
39621;DHT22;25309;48.686;9.170;2022-11-04T10:57:54;13.50;99.90
39621;DHT22;25309;48.686;9.170;2022-11-04T11:00:36;13.50;99.90
39621;DHT22;25309;48.686;9.170;2022-11-04T11:03:22;13.50;99.90
39621;DHT22;25309;48.686;9.170;2022-11-04T11:05:50;13.30;99.90
39621;DHT22;25309;48.686;9.170;2022-11-04T11:08:29;13.20;99.90
39621;DHT22;25309;48.686;9.170;2022-11-04T11:10:58;13.10;99.90
39621;DHT22;25309;48.686;9.170;2022-11-04T11:13:26;13.00;99.90
39621;DHT22;25309;48.686;9.170;2022-11-04T11:16:12;13.00;99.90
39621;DHT22;25309;48.686;9.170;2022-11-04T11:18:42;12.90;99.90
39621;DHT22;25309;48.686;9.170;2022-11-04T11:21:12;12.90;99.90
39621;DHT22;25309;48.686;9.170;2022-11-04T11:23:42;12.90;99.90
39621;DHT22;25309;48.686;9.170;2022-11-04T11:26:13;12.90;99.90
39621;DHT22;25309;48.686;9.170;2022-11-04T11:28:47;12.90;99.90
39621;DHT22;25309;48.686;9.170;2022-11-04T11:31:22;12.90;99.90
39621;DHT22;25309;48.686;9.170;2022-11-04T11:33:54;12.80;99.90
39621;DHT22;25309;48.686;9.170;2022-11-04T11:36:22;12.80;99.90
39621;DHT22;25309;48.686;9.170;2022-11-04T11:38:53;12.70;99.90
39621;DHT22;25309;48.686;9.170;2022-11-04T11:41:23;12.70;99.90
39621;DHT22;25309;48.686;9.170;2022-11-04T11:44:00;12.70;99.90
39621;DHT22;25309;48.686;9.170;2022-11-04T11:46:29;12.60;99.90
39621;DHT22;25309;48.686;9.170;2022-11-04T11:48:58;12.60;99.90
39621;DHT22;25309;48.686;9.170;2022-11-04T11:51:30;12.60;99.90
39621;DHT22;25309;48.686;9.170;2022-11-04T11:54:22;12.50;99.90
39621;DHT22;25309;48.686;9.170;2022-11-04T11:56:53;12.60;99.90
39621;DHT22;25309;48.686;9.170;2022-11-04T11:59:44;12.60;99.90
39621;DHT22;25309;48.686;9.170;2022-11-04T12:02:43;12.60;99.90
39621;DHT22;25309;48.686;9.170;2022-11-04T12:05:12;12.60;99.90
39621;DHT22;25309;48.686;9.170;2022-11-04T12:08:07;12.70;99.90
39621;DHT22;25309;48.686;9.170;2022-11-04T12:11:03;12.70;99.90
39621;DHT22;25309;48.686;9.170;2022-11-04T12:13:38;12.70;99.90
39621;DHT22;25309;48.686;9.170;2022-11-04T12:16:22;12.70;99.90
39621;DHT22;25309;48.686;9.170;2022-11-04T12:19:07;12.80;99.90
39621;DHT22;25309;48.686;9.170;2022-11-04T12:21:39;12.80;99.90
39621;DHT22;25309;48.686;9.170;2022-11-04T12:24:17;12.70;99.90
39621;DHT22;25309;48.686;9.170;2022-11-04T12:26:53;12.70;99.90
39621;DHT22;25309;48.686;9.170;2022-11-04T12:29:35;12.60;99.90
39621;DHT22;25309;48.686;9.170;2022-11-04T12:32:14;12.70;99.90
39621;DHT22;25309;48.686;9.170;2022-11-04T12:34:55;12.70;99.90
39621;DHT22;25309;48.686;9.170;2022-11-04T12:37:33;12.80;99.90
39621;DHT22;25309;48.686;9.170;2022-11-04T12:40:23;12.80;99.90
39621;DHT22;25309;48.686;9.170;2022-11-04T12:43:05;12.80;99.90
39621;DHT22;25309;48.686;9.170;2022-11-04T12:45:48;12.80;99.90
39621;DHT22;25309;48.686;9.170;2022-11-04T12:48:30;12.80;99.90
39621;DHT22;25309;48.686;9.170;2022-11-04T12:51:06;12.80;99.90
39621;DHT22;25309;48.686;9.170;2022-11-04T12:53:47;12.80;99.90
39621;DHT22;25309;48.686;9.170;2022-11-04T12:56:18;12.80;99.90
39621;DHT22;25309;48.686;9.170;2022-11-04T12:59:19;12.80;99.90
39621;DHT22;25309;48.686;9.170;2022-11-04T13:01:51;12.90;99.90
39621;DHT22;25309;48.686;9.170;2022-11-04T13:04:22;12.90;99.90
39621;DHT22;25309;48.686;9.170;2022-11-04T13:06:53;12.90;99.90
39621;DHT22;25309;48.686;9.170;2022-11-04T13:09:25;13.00;99.90
39621;DHT22;25309;48.686;9.170;2022-11-04T13:11:58;13.20;99.90
39621;DHT22;25309;48.686;9.170;2022-11-04T13:14:32;13.40;99.90
39621;DHT22;25309;48.686;9.170;2022-11-04T13:17:08;13.60;99.90
39621;DHT22;25309;48.686;9.170;2022-11-04T13:19:39;13.80;99.90
39621;DHT22;25309;48.686;9.170;2022-11-04T13:22:11;14.10;99.90
39621;DHT22;25309;48.686;9.170;2022-11-04T13:24:46;14.30;99.90
39621;DHT22;25309;48.686;9.170;2022-11-04T13:27:18;14.50;99.80
39621;DHT22;25309;48.686;9.170;2022-11-04T13:29:47;14.70;98.40
39621;DHT22;25309;48.686;9.170;2022-11-04T13:32:23;14.80;98.90
39621;DHT22;25309;48.686;9.170;2022-11-04T13:34:56;15.00;98.90
39621;DHT22;25309;48.686;9.170;2022-11-04T13:37:28;15.20;98.60
39621;DHT22;25309;48.686;9.170;2022-11-04T13:39:58;15.30;98.30
39621;DHT22;25309;48.686;9.170;2022-11-04T13:45:56;15.30;97.80
39621;DHT22;25309;48.686;9.170;2022-11-04T13:48:26;15.30;97.70
39621;DHT22;25309;48.686;9.170;2022-11-04T13:50:58;15.20;97.60
39621;DHT22;25309;48.686;9.170;2022-11-04T13:53:43;15.10;97.70
39621;DHT22;25309;48.686;9.170;2022-11-04T13:56:26;14.90;97.20
39621;DHT22;25309;48.686;9.170;2022-11-04T13:59:04;14.60;97.80
39621;DHT22;25309;48.686;9.170;2022-11-04T14:01:33;14.40;98.50
39621;DHT22;25309;48.686;9.170;2022-11-04T14:04:27;14.30;99.50
39621;DHT22;25309;48.686;9.170;2022-11-04T14:06:57;14.20;99.90
39621;DHT22;25309;48.686;9.170;2022-11-04T14:09:54;14.10;99.90
39621;DHT22;25309;48.686;9.170;2022-11-04T14:12:30;14.00;99.90
39621;DHT22;25309;48.686;9.170;2022-11-04T14:15:08;13.90;99.90
39621;DHT22;25309;48.686;9.170;2022-11-04T14:18:01;13.80;99.90
39621;DHT22;25309;48.686;9.170;2022-11-04T14:20:32;13.60;99.90
39621;DHT22;25309;48.686;9.170;2022-11-04T14:23:00;13.50;99.90
39621;DHT22;25309;48.686;9.170;2022-11-04T14:25:30;13.40;99.90
39621;DHT22;25309;48.686;9.170;2022-11-04T14:27:59;13.30;99.90
39621;DHT22;25309;48.686;9.170;2022-11-04T14:33:30;13.10;99.90
39621;DHT22;25309;48.686;9.170;2022-11-04T14:39:22;13.00;99.90
39621;DHT22;25309;48.686;9.170;2022-11-04T14:41:58;12.90;99.90
39621;DHT22;25309;48.686;9.170;2022-11-04T14:44:30;12.80;99.90
39621;DHT22;25309;48.686;9.170;2022-11-04T14:47:01;12.70;99.90
39621;DHT22;25309;48.686;9.170;2022-11-04T14:49:38;12.60;99.90
39621;DHT22;25309;48.686;9.170;2022-11-04T14:52:14;12.60;99.90
39621;DHT22;25309;48.686;9.170;2022-11-04T14:54:43;12.60;99.90
39621;DHT22;25309;48.686;9.170;2022-11-04T14:57:14;12.60;99.90
39621;DHT22;25309;48.686;9.170;2022-11-04T14:59:41;12.60;99.90
39621;DHT22;25309;48.686;9.170;2022-11-04T15:02:15;12.60;99.90
39621;DHT22;25309;48.686;9.170;2022-11-04T15:04:55;12.60;99.90
39621;DHT22;25309;48.686;9.170;2022-11-04T15:07:32;12.50;99.90
39621;DHT22;25309;48.686;9.170;2022-11-04T15:10:02;12.50;99.90
39621;DHT22;25309;48.686;9.170;2022-11-04T15:12:30;12.50;99.90
39621;DHT22;25309;48.686;9.170;2022-11-04T15:15:28;12.50;99.90
39621;DHT22;25309;48.686;9.170;2022-11-04T15:17:58;12.60;99.90
39621;DHT22;25309;48.686;9.170;2022-11-04T15:20:28;12.50;99.90
39621;DHT22;25309;48.686;9.170;2022-11-04T15:23:00;12.60;99.90
39621;DHT22;25309;48.686;9.170;2022-11-04T15:25:30;12.60;99.90
39621;DHT22;25309;48.686;9.170;2022-11-04T15:27:58;12.60;99.90
39621;DHT22;25309;48.686;9.170;2022-11-04T15:30:28;12.60;99.90
39621;DHT22;25309;48.686;9.170;2022-11-04T15:32:57;12.60;99.90
39621;DHT22;25309;48.686;9.170;2022-11-04T15:35:27;12.60;99.90
39621;DHT22;25309;48.686;9.170;2022-11-04T15:37:55;12.50;99.90
39621;DHT22;25309;48.686;9.170;2022-11-04T15:40:23;12.50;99.90
39621;DHT22;25309;48.686;9.170;2022-11-04T15:42:53;12.40;99.90
39621;DHT22;25309;48.686;9.170;2022-11-04T15:45:48;12.30;99.90
39621;DHT22;25309;48.686;9.170;2022-11-04T15:48:28;12.30;99.90
39621;DHT22;25309;48.686;9.170;2022-11-04T15:51:12;12.30;99.90
39621;DHT22;25309;48.686;9.170;2022-11-04T15:53:49;12.30;99.90
39621;DHT22;25309;48.686;9.170;2022-11-04T15:56:20;12.30;99.90
39621;DHT22;25309;48.686;9.170;2022-11-04T15:58:50;12.20;99.90
39621;DHT22;25309;48.686;9.170;2022-11-04T16:01:18;12.20;99.90
39621;DHT22;25309;48.686;9.170;2022-11-04T16:03:49;12.20;99.90
39621;DHT22;25309;48.686;9.170;2022-11-04T16:06:16;12.10;99.90
39621;DHT22;25309;48.686;9.170;2022-11-04T16:08:59;12.10;99.90
39621;DHT22;25309;48.686;9.170;2022-11-04T16:11:26;12.00;99.90
39621;DHT22;25309;48.686;9.170;2022-11-04T16:14:13;12.00;99.90
39621;DHT22;25309;48.686;9.170;2022-11-04T16:16:45;11.90;99.90
39621;DHT22;25309;48.686;9.170;2022-11-04T16:19:16;11.90;99.90
39621;DHT22;25309;48.686;9.170;2022-11-04T16:21:58;11.80;99.90
39621;DHT22;25309;48.686;9.170;2022-11-04T16:24:26;11.80;99.90